sensor_id;sensor_type;location;lat;lon;timestamp;pressure;altitude;pressure_sealevel;temperature;humidity
83551;BME280;74617;47.082;15.524;2024-02-21T00:00:28;97586.72;;;18.76;46.26
83551;BME280;74617;47.082;15.524;2024-02-21T00:02:54;97584.31;;;18.75;46.33
83551;BME280;74617;47.082;15.524;2024-02-21T00:05:19;97582.72;;;18.74;46.45
83551;BME280;74617;47.082;15.524;2024-02-21T00:07:44;97577.28;;;18.74;46.33
83551;BME280;74617;47.082;15.524;2024-02-21T00:10:10;97571.81;;;18.74;46.56
83551;BME280;74617;47.082;15.524;2024-02-21T00:12:35;97575.63;;;18.73;46.73
83551;BME280;74617;47.082;15.524;2024-02-21T00:15:00;97577.28;;;18.74;46.52
83551;BME280;74617;47.082;15.524;2024-02-21T00:17:26;97578.66;;;18.71;46.47
83551;BME280;74617;47.082;15.524;2024-02-21T00:19:51;97580.59;;;18.71;46.60
83551;BME280;74617;47.082;15.524;2024-02-21T00:22:16;97584.91;;;18.72;46.47
83551;BME280;74617;47.082;15.524;2024-02-21T00:24:42;97574.34;;;18.70;46.46
83551;BME280;74617;47.082;15.524;2024-02-21T00:27:07;97575.16;;;18.71;46.59
83551;BME280;74617;47.082;15.524;2024-02-21T00:29:33;97573.53;;;18.70;46.57
83551;BME280;74617;47.082;15.524;2024-02-21T00:31:59;97571.63;;;18.70;46.85
83551;BME280;74617;47.082;15.524;2024-02-21T00:34:24;97570.00;;;18.69;46.62
83551;BME280;74617;47.082;15.524;2024-02-21T00:36:50;97565.38;;;18.70;46.57
83551;BME280;74617;47.082;15.524;2024-02-21T00:39:15;97574.66;;;18.69;46.68
83551;BME280;74617;47.082;15.524;2024-02-21T00:41:41;97571.94;;;18.69;46.54
83551;BME280;74617;47.082;15.524;2024-02-21T00:44:06;97567.59;;;18.68;46.46
83551;BME280;74617;47.082;15.524;2024-02-21T00:46:31;97564.88;;;18.68;46.82
83551;BME280;74617;47.082;15.524;2024-02-21T00:48:57;97564.88;;;18.68;46.63
83551;BME280;74617;47.082;15.524;2024-02-21T00:51:22;97562.44;;;18.66;46.76
83551;BME280;74617;47.082;15.524;2024-02-21T00:53:48;97557.84;;;18.67;46.71
83551;BME280;74617;47.082;15.524;2024-02-21T00:56:13;97557.84;;;18.67;46.84
83551;BME280;74617;47.082;15.524;2024-02-21T00:58:38;97550.47;;;18.67;46.83
83551;BME280;74617;47.082;15.524;2024-02-21T01:01:04;97549.34;;;18.68;46.78
83551;BME280;74617;47.082;15.524;2024-02-21T01:03:29;97556.72;;;18.68;46.78
83551;BME280;74617;47.082;15.524;2024-02-21T01:05:55;97555.13;;;18.67;46.70
83551;BME280;74617;47.082;15.524;2024-02-21T01:08:20;97558.88;;;18.66;47.15
83551;BME280;74617;47.082;15.524;2024-02-21T01:10:45;97548.00;;;18.66;47.14
83551;BME280;74617;47.082;15.524;2024-02-21T01:13:11;97552.38;;;18.67;46.85
83551;BME280;74617;47.082;15.524;2024-02-21T01:15:36;97550.72;;;18.66;46.86
83551;BME280;74617;47.082;15.524;2024-02-21T01:18:02;97550.72;;;18.66;46.59
83551;BME280;74617;47.082;15.524;2024-02-21T01:20:27;97551.84;;;18.65;46.84
83551;BME280;74617;47.082;15.524;2024-02-21T01:22:53;97550.22;;;18.64;47.00
83551;BME280;74617;47.082;15.524;2024-02-21T01:25:18;97552.63;;;18.65;46.92
83551;BME280;74617;47.082;15.524;2024-02-21T01:27:44;97554.56;;;18.65;47.03
83551;BME280;74617;47.082;15.524;2024-02-21T01:30:09;97547.50;;;18.64;46.84
83551;BME280;74617;47.082;15.524;2024-02-21T01:32:36;97541.25;;;18.63;46.95
83551;BME280;74617;47.082;15.524;2024-02-21T01:35:01;97548.63;;;18.63;47.02
83551;BME280;74617;47.082;15.524;2024-02-21T01:37:26;97548.63;;;18.63;46.83
83551;BME280;74617;47.082;15.524;2024-02-21T01:39:52;97545.09;;;18.62;47.10
83551;BME280;74617;47.082;15.524;2024-02-21T01:42:18;97555.19;;;18.62;46.86
83551;BME280;74617;47.082;15.524;2024-02-21T01:44:43;97542.69;;;18.61;47.15
83551;BME280;74617;47.082;15.524;2024-02-21T01:47:11;97540.78;;;18.61;46.92
83551;BME280;74617;47.082;15.524;2024-02-21T01:49:40;97539.97;;;18.61;46.97
83551;BME280;74617;47.082;15.524;2024-02-21T01:52:07;97537.25;;;18.61;46.92
83551;BME280;74617;47.082;15.524;2024-02-21T01:54:32;97531.00;;;18.60;46.96
83551;BME280;74617;47.082;15.524;2024-02-21T01:56:58;97537.53;;;18.59;47.04
83551;BME280;74617;47.082;15.524;2024-02-21T01:59:23;97530.16;;;18.59;46.80
83551;BME280;74617;47.082;15.524;2024-02-21T02:01:51;97520.41;;;18.58;46.94
83551;BME280;74617;47.082;15.524;2024-02-21T02:04:16;97518.00;;;18.57;46.92
83551;BME280;74617;47.082;15.524;2024-02-21T02:06:42;97522.63;;;18.56;46.92
83551;BME280;74617;47.082;15.524;2024-02-21T02:09:08;97520.72;;;18.57;46.96
83551;BME280;74617;47.082;15.524;2024-02-21T02:11:33;97521.03;;;18.55;47.12
83551;BME280;74617;47.082;15.524;2024-02-21T02:13:58;97512.06;;;18.55;47.04
83551;BME280;74617;47.082;15.524;2024-02-21T02:16:24;97518.31;;;18.55;47.03
83551;BME280;74617;47.082;15.524;2024-02-21T02:18:50;97526.47;;;18.55;47.09
83551;BME280;74617;47.082;15.524;2024-02-21T02:21:23;97516.38;;;18.56;46.84
83551;BME280;74617;47.082;15.524;2024-02-21T02:23:51;97504.69;;;18.55;46.99
83551;BME280;74617;47.082;15.524;2024-02-21T02:26:16;97508.22;;;18.56;47.05
83551;BME280;74617;47.082;15.524;2024-02-21T02:28:42;97513.97;;;18.54;46.97
83551;BME280;74617;47.082;15.524;2024-02-21T02:31:07;97512.06;;;18.55;47.23
83551;BME280;74617;47.082;15.524;2024-02-21T02:33:32;97503.91;;;18.55;47.09
83551;BME280;74617;47.082;15.524;2024-02-21T02:35:58;97510.47;;;18.54;47.05
83551;BME280;74617;47.082;15.524;2024-02-21T02:38:24;97502.28;;;18.54;47.06
83551;BME280;74617;47.082;15.524;2024-02-21T02:40:49;97499.56;;;18.54;46.83
83551;BME280;74617;47.082;15.524;2024-02-21T02:43:14;97493.31;;;18.53;46.83
83551;BME280;74617;47.082;15.524;2024-02-21T02:45:40;97497.66;;;18.54;46.94
83551;BME280;74617;47.082;15.524;2024-02-21T02:48:06;97501.50;;;18.53;47.07
83551;BME280;74617;47.082;15.524;2024-02-21T02:50:31;97493.31;;;18.53;47.21
83551;BME280;74617;47.082;15.524;2024-02-21T02:52:57;97497.13;;;18.52;47.01
83551;BME280;74617;47.082;15.524;2024-02-21T02:55:22;97497.13;;;18.52;47.09
83551;BME280;74617;47.082;15.524;2024-02-21T02:57:48;97484.66;;;18.51;47.07
83551;BME280;74617;47.082;15.524;2024-02-21T03:00:14;97490.09;;;18.51;47.05
83551;BME280;74617;47.082;15.524;2024-02-21T03:02:42;97488.97;;;18.52;47.17
83551;BME280;74617;47.082;15.524;2024-02-21T03:05:16;97485.75;;;18.50;47.13
83551;BME280;74617;47.082;15.524;2024-02-21T03:07:42;97488.16;;;18.52;47.02
83551;BME280;74617;47.082;15.524;2024-02-21T03:10:08;97483.03;;;18.50;47.31
83551;BME280;74617;47.082;15.524;2024-02-21T03:12:35;97483.84;;;18.51;47.25
83551;BME280;74617;47.082;15.524;2024-02-21T03:15:00;97476.78;;;18.50;47.04
83551;BME280;74617;47.082;15.524;2024-02-21T03:17:26;97487.69;;;18.50;47.12
83551;BME280;74617;47.082;15.524;2024-02-21T03:19:54;97476.00;;;18.49;47.03
83551;BME280;74617;47.082;15.524;2024-02-21T03:22:24;97483.03;;;18.50;47.21
83551;BME280;74617;47.082;15.524;2024-02-21T03:24:49;97477.13;;;18.48;46.98
83551;BME280;74617;47.082;15.524;2024-02-21T03:27:14;97483.34;;;18.49;47.27
83551;BME280;74617;47.082;15.524;2024-02-21T03:29:40;97476.31;;;18.48;47.06
83551;BME280;74617;47.082;15.524;2024-02-21T03:32:05;97479.84;;;18.48;47.16
83551;BME280;74617;47.082;15.524;2024-02-21T03:34:31;97480.94;;;18.47;47.24
83551;BME280;74617;47.082;15.524;2024-02-21T03:36:56;97480.94;;;18.47;47.19
83551;BME280;74617;47.082;15.524;2024-02-21T03:39:21;97476.31;;;18.48;47.21
83551;BME280;74617;47.082;15.524;2024-02-21T03:41:47;97476.63;;;18.46;47.26
83551;BME280;74617;47.082;15.524;2024-02-21T03:44:12;97481.75;;;18.48;47.32
83551;BME280;74617;47.082;15.524;2024-02-21T03:46:38;97479.34;;;18.46;47.30
83551;BME280;74617;47.082;15.524;2024-02-21T03:49:03;97480.94;;;18.47;47.12
83551;BME280;74617;47.082;15.524;2024-02-21T03:51:29;97479.34;;;18.46;47.23
83551;BME280;74617;47.082;15.524;2024-02-21T03:53:54;97481.22;;;18.46;47.13
83551;BME280;74617;47.082;15.524;2024-02-21T03:56:19;97479.34;;;18.46;47.43
83551;BME280;74617;47.082;15.524;2024-02-21T03:58:45;97477.44;;;18.47;47.56
83551;BME280;74617;47.082;15.524;2024-02-21T04:01:10;97476.91;;;18.45;47.16
83551;BME280;74617;47.082;15.524;2024-02-21T04:03:35;97470.66;;;18.44;47.22
83551;BME280;74617;47.082;15.524;2024-02-21T04:06:01;97477.72;;;18.45;47.51
83551;BME280;74617;47.082;15.524;2024-02-21T04:08:26;97477.72;;;18.45;47.28
83551;BME280;74617;47.082;15.524;2024-02-21T04:10:51;97473.06;;;18.46;47.32
83551;BME280;74617;47.082;15.524;2024-02-21T04:13:17;97470.66;;;18.44;47.17
83551;BME280;74617;47.082;15.524;2024-02-21T04:15:42;97474.50;;;18.43;47.30
83551;BME280;74617;47.082;15.524;2024-02-21T04:18:08;97469.84;;;18.44;47.36
83551;BME280;74617;47.082;15.524;2024-02-21T04:20:34;97475.00;;;18.45;47.15
83551;BME280;74617;47.082;15.524;2024-02-21T04:23:00;97473.91;;;18.46;47.03
83551;BME280;74617;47.082;15.524;2024-02-21T04:25:25;97470.88;;;18.48;47.61
83551;BME280;74617;47.082;15.524;2024-02-21T04:27:51;97468.94;;;18.48;47.17
83551;BME280;74617;47.082;15.524;2024-02-21T04:30:17;97466.72;;;18.50;47.24
83551;BME280;74617;47.082;15.524;2024-02-21T04:32:42;97461.59;;;18.49;47.16
83551;BME280;74617;47.082;15.524;2024-02-21T04:35:08;97462.06;;;18.51;47.07
83551;BME280;74617;47.082;15.524;2024-02-21T04:37:34;97469.91;;;18.52;47.16
83551;BME280;74617;47.082;15.524;2024-02-21T04:39:59;97468.84;;;18.53;47.42
83551;BME280;74617;47.082;15.524;2024-02-21T04:42:24;97463.88;;;18.55;47.39
83551;BME280;74617;47.082;15.524;2024-02-21T04:44:50;97471.41;;;18.58;47.53
83551;BME280;74617;47.082;15.524;2024-02-21T04:47:16;97462.13;;;18.59;47.42
83551;BME280;74617;47.082;15.524;2024-02-21T04:49:41;97460.72;;;18.62;47.91
83551;BME280;74617;47.082;15.524;2024-02-21T04:52:06;97457.69;;;18.64;47.92
83551;BME280;74617;47.082;15.524;2024-02-21T04:54:32;97446.22;;;18.67;47.92
83551;BME280;74617;47.082;15.524;2024-02-21T04:56:57;97452.47;;;18.67;47.97
83551;BME280;74617;47.082;15.524;2024-02-21T04:59:22;97451.69;;;18.67;48.16
83551;BME280;74617;47.082;15.524;2024-02-21T05:01:48;97456.00;;;18.68;47.91
83551;BME280;74617;47.082;15.524;2024-02-21T05:04:13;97446.72;;;18.69;48.26
83551;BME280;74617;47.082;15.524;2024-02-21T05:06:42;97451.03;;;18.70;48.43
83551;BME280;74617;47.082;15.524;2024-02-21T05:09:08;97460.00;;;18.70;48.09
83551;BME280;74617;47.082;15.524;2024-02-21T05:11:34;97442.88;;;18.70;48.02
83551;BME280;74617;47.082;15.524;2024-02-21T05:14:00;97443.69;;;18.70;48.00
83551;BME280;74617;47.082;15.524;2024-02-21T05:16:25;97450.72;;;18.71;48.07
83551;BME280;74617;47.082;15.524;2024-02-21T05:18:50;97442.06;;;18.69;48.02
83551;BME280;74617;47.082;15.524;2024-02-21T05:21:16;97462.72;;;18.70;48.09
83551;BME280;74617;47.082;15.524;2024-02-21T05:23:41;97448.31;;;18.70;47.98
83551;BME280;74617;47.082;15.524;2024-02-21T05:26:07;97459.69;;;18.72;48.43
83551;BME280;74617;47.082;15.524;2024-02-21T05:28:32;97462.94;;;18.74;48.32
83551;BME280;74617;47.082;15.524;2024-02-21T05:30:58;97456.84;;;18.77;48.50
83551;BME280;74617;47.082;15.524;2024-02-21T05:33:24;97443.31;;;18.27;40.79
83551;BME280;74617;47.082;15.524;2024-02-21T05:35:49;97450.38;;;17.37;37.54
83551;BME280;74617;47.082;15.524;2024-02-21T05:38:15;97445.44;;;16.60;36.77
83551;BME280;74617;47.082;15.524;2024-02-21T05:40:41;97448.88;;;16.14;36.32
83551;BME280;74617;47.082;15.524;2024-02-21T05:43:07;97444.94;;;15.82;36.57
83551;BME280;74617;47.082;15.524;2024-02-21T05:45:33;97442.50;;;15.62;37.02
83551;BME280;74617;47.082;15.524;2024-02-21T05:47:59;97448.19;;;15.60;37.19
83551;BME280;74617;47.082;15.524;2024-02-21T05:50:25;97447.97;;;16.37;39.44
83551;BME280;74617;47.082;15.524;2024-02-21T05:52:52;97446.78;;;16.95;39.97
83551;BME280;74617;47.082;15.524;2024-02-21T05:55:18;97446.94;;;17.31;39.94
83551;BME280;74617;47.082;15.524;2024-02-21T05:57:43;97451.34;;;17.55;40.20
83551;BME280;74617;47.082;15.524;2024-02-21T06:00:09;97447.28;;;17.71;40.56
83551;BME280;74617;47.082;15.524;2024-02-21T06:02:34;97439.38;;;17.83;40.75
83551;BME280;74617;47.082;15.524;2024-02-21T06:05:00;97445.41;;;17.94;41.03
83551;BME280;74617;47.082;15.524;2024-02-21T06:07:25;97441.16;;;18.01;41.16
83551;BME280;74617;47.082;15.524;2024-02-21T06:09:50;97434.19;;;18.09;41.28
83551;BME280;74617;47.082;15.524;2024-02-21T06:12:16;97435.69;;;18.15;41.41
83551;BME280;74617;47.082;15.524;2024-02-21T06:14:41;97429.03;;;18.21;41.58
83551;BME280;74617;47.082;15.524;2024-02-21T06:17:07;97424.28;;;18.27;41.96
83551;BME280;74617;47.082;15.524;2024-02-21T06:19:32;97426.88;;;18.32;41.94
83551;BME280;74617;47.082;15.524;2024-02-21T06:21:57;97433.00;;;18.38;42.09
83551;BME280;74617;47.082;15.524;2024-02-21T06:24:23;97431.59;;;18.40;42.21
83551;BME280;74617;47.082;15.524;2024-02-21T06:26:48;97436.91;;;18.45;42.61
83551;BME280;74617;47.082;15.524;2024-02-21T06:29:13;97434.38;;;18.49;42.28
83551;BME280;74617;47.082;15.524;2024-02-21T06:31:40;97437.28;;;18.52;42.89
83551;BME280;74617;47.082;15.524;2024-02-21T06:34:05;97438.75;;;18.58;43.55
83551;BME280;74617;47.082;15.524;2024-02-21T06:36:31;97442.00;;;18.61;43.70
83551;BME280;74617;47.082;15.524;2024-02-21T06:38:56;97437.53;;;18.65;43.90
83551;BME280;74617;47.082;15.524;2024-02-21T06:41:22;97442.06;;;18.69;44.84
83551;BME280;74617;47.082;15.524;2024-02-21T06:43:48;97438.72;;;18.72;44.76
83551;BME280;74617;47.082;15.524;2024-02-21T06:46:26;97449.81;;;18.76;44.24
83551;BME280;74617;47.082;15.524;2024-02-21T06:48:51;97445.03;;;18.81;44.70
83551;BME280;74617;47.082;15.524;2024-02-21T06:51:17;97458.34;;;18.83;44.41
83551;BME280;74617;47.082;15.524;2024-02-21T06:53:42;97453.38;;;18.85;44.55
83551;BME280;74617;47.082;15.524;2024-02-21T06:56:09;97454.97;;;18.86;44.37
83551;BME280;74617;47.082;15.524;2024-02-21T06:58:34;97453.56;;;18.89;44.35
83551;BME280;74617;47.082;15.524;2024-02-21T07:01:00;97454.88;;;18.91;44.57
83551;BME280;74617;47.082;15.524;2024-02-21T07:03:25;97460.78;;;18.93;44.26
83551;BME280;74617;47.082;15.524;2024-02-21T07:05:51;97457.78;;;18.95;44.24
83551;BME280;74617;47.082;15.524;2024-02-21T07:08:16;97457.47;;;18.96;44.62
83551;BME280;74617;47.082;15.524;2024-02-21T07:10:42;97455.22;;;18.98;44.47
83551;BME280;74617;47.082;15.524;2024-02-21T07:13:07;97452.50;;;18.98;44.51
83551;BME280;74617;47.082;15.524;2024-02-21T07:15:32;97457.63;;;19.00;44.51
83551;BME280;74617;47.082;15.524;2024-02-21T07:17:58;97455.72;;;19.00;44.51
83551;BME280;74617;47.082;15.524;2024-02-21T07:20:24;97449.66;;;19.03;44.48
83551;BME280;74617;47.082;15.524;2024-02-21T07:22:49;97446.63;;;19.05;44.41
83551;BME280;74617;47.082;15.524;2024-02-21T07:25:15;97458.00;;;19.07;44.31
83551;BME280;74617;47.082;15.524;2024-02-21T07:27:40;97449.22;;;19.10;44.58
83551;BME280;74617;47.082;15.524;2024-02-21T07:30:07;97451.28;;;19.13;44.75
83551;BME280;74617;47.082;15.524;2024-02-21T07:32:32;97442.53;;;19.16;44.95
83551;BME280;74617;47.082;15.524;2024-02-21T07:34:58;97443.47;;;19.20;44.95
83551;BME280;74617;47.082;15.524;2024-02-21T07:37:23;97431.78;;;19.20;44.86
83551;BME280;74617;47.082;15.524;2024-02-21T07:39:48;97445.28;;;19.25;44.86
83551;BME280;74617;47.082;15.524;2024-02-21T07:42:14;97439.97;;;19.28;44.90
83551;BME280;74617;47.082;15.524;2024-02-21T07:44:40;97437.25;;;19.28;44.61
83551;BME280;74617;47.082;15.524;2024-02-21T07:47:06;97432.66;;;19.29;44.58
83551;BME280;74617;47.082;15.524;2024-02-21T07:49:32;97426.38;;;19.28;44.89
83551;BME280;74617;47.082;15.524;2024-02-21T07:52:00;97422.84;;;19.28;44.47
83551;BME280;74617;47.082;15.524;2024-02-21T07:54:25;97428.28;;;19.28;44.71
83551;BME280;74617;47.082;15.524;2024-02-21T07:56:51;97418.19;;;19.28;44.55
83551;BME280;74617;47.082;15.524;2024-02-21T07:59:16;97422.84;;;19.28;44.51
83551;BME280;74617;47.082;15.524;2024-02-21T08:01:42;97426.06;;;19.30;44.43
83551;BME280;74617;47.082;15.524;2024-02-21T08:04:08;97417.09;;;19.29;44.38
83551;BME280;74617;47.082;15.524;2024-02-21T08:06:33;97414.84;;;19.31;44.42
83551;BME280;74617;47.082;15.524;2024-02-21T08:08:59;97409.88;;;19.33;44.58
83551;BME280;74617;47.082;15.524;2024-02-21T08:11:25;97413.41;;;19.34;44.43
83551;BME280;74617;47.082;15.524;2024-02-21T08:13:51;97400.59;;;19.34;44.29
83551;BME280;74617;47.082;15.524;2024-02-21T08:16:16;97413.91;;;19.36;44.45
83551;BME280;74617;47.082;15.524;2024-02-21T08:18:44;97406.53;;;19.36;44.45
83551;BME280;74617;47.082;15.524;2024-02-21T08:21:09;97403.81;;;19.36;44.47
83551;BME280;74617;47.082;15.524;2024-02-21T08:23:34;97396.44;;;19.37;44.21
83551;BME280;74617;47.082;15.524;2024-02-21T08:26:03;97399.97;;;19.37;44.32
83551;BME280;74617;47.082;15.524;2024-02-21T08:28:28;97400.28;;;19.36;44.39
83551;BME280;74617;47.082;15.524;2024-02-21T08:30:53;97403.03;;;19.36;44.33
83551;BME280;74617;47.082;15.524;2024-02-21T08:33:19;97410.88;;;19.37;44.31
83551;BME280;74617;47.082;15.524;2024-02-21T08:35:49;97402.69;;;19.37;44.24
83551;BME280;74617;47.082;15.524;2024-02-21T08:38:15;97402.38;;;19.39;44.27
83551;BME280;74617;47.082;15.524;2024-02-21T08:40:40;97398.19;;;19.41;44.32
83551;BME280;74617;47.082;15.524;2024-02-21T08:43:05;97404.44;;;19.42;43.26
83551;BME280;74617;47.082;15.524;2024-02-21T08:45:31;97392.59;;;19.38;41.88
83551;BME280;74617;47.082;15.524;2024-02-21T08:47:56;97395.94;;;19.35;40.85
83551;BME280;74617;47.082;15.524;2024-02-21T08:50:22;97391.13;;;19.32;40.97
83551;BME280;74617;47.082;15.524;2024-02-21T08:52:47;97392.56;;;19.29;40.53
83551;BME280;74617;47.082;15.524;2024-02-21T08:55:12;97392.72;;;19.33;41.36
83551;BME280;74617;47.082;15.524;2024-02-21T08:57:38;97391.31;;;19.35;42.26
83551;BME280;74617;47.082;15.524;2024-02-21T09:00:05;97394.84;;;19.36;42.64
83551;BME280;74617;47.082;15.524;2024-02-21T09:02:39;97393.72;;;19.37;42.61
83551;BME280;74617;47.082;15.524;2024-02-21T09:05:05;97389.88;;;19.38;42.71
83551;BME280;74617;47.082;15.524;2024-02-21T09:07:31;97389.88;;;19.38;42.59
83551;BME280;74617;47.082;15.524;2024-02-21T09:09:56;97392.28;;;19.39;42.88
83551;BME280;74617;47.082;15.524;2024-02-21T09:12:21;97387.31;;;19.41;42.80
83551;BME280;74617;47.082;15.524;2024-02-21T09:14:47;97389.72;;;19.43;42.91
83551;BME280;74617;47.082;15.524;2024-02-21T09:17:16;97383.16;;;19.44;43.10
83551;BME280;74617;47.082;15.524;2024-02-21T09:19:42;97391.81;;;19.46;42.91
83551;BME280;74617;47.082;15.524;2024-02-21T09:22:08;97387.97;;;19.47;43.17
83551;BME280;74617;47.082;15.524;2024-02-21T09:24:33;97372.41;;;19.48;43.29
83551;BME280;74617;47.082;15.524;2024-02-21T09:26:59;97375.13;;;19.48;42.90
83551;BME280;74617;47.082;15.524;2024-02-21T09:29:25;97373.22;;;19.48;42.93
83551;BME280;74617;47.082;15.524;2024-02-21T09:31:50;97374.84;;;19.49;43.31
83551;BME280;74617;47.082;15.524;2024-02-21T09:34:16;97372.13;;;19.49;43.19
83551;BME280;74617;47.082;15.524;2024-02-21T09:36:41;97375.66;;;19.50;43.25
83551;BME280;74617;47.082;15.524;2024-02-21T09:39:07;97366.03;;;19.52;43.74
83551;BME280;74617;47.082;15.524;2024-02-21T09:41:36;97367.31;;;19.55;43.82
83551;BME280;74617;47.082;15.524;2024-02-21T09:44:06;97363.19;;;19.57;43.49
83551;BME280;74617;47.082;15.524;2024-02-21T09:46:40;97356.59;;;19.58;43.53
83551;BME280;74617;47.082;15.524;2024-02-21T09:49:30;97363.34;;;19.61;43.87
83551;BME280;74617;47.082;15.524;2024-02-21T09:52:02;97359.19;;;19.63;43.82
83551;BME280;74617;47.082;15.524;2024-02-21T09:54:30;97360.00;;;19.64;43.45
83551;BME280;74617;47.082;15.524;2024-02-21T09:57:06;97356.94;;;19.65;43.82
83551;BME280;74617;47.082;15.524;2024-02-21T09:59:32;97349.56;;;19.66;44.14
83551;BME280;74617;47.082;15.524;2024-02-21T10:01:58;97350.38;;;19.66;43.76
83551;BME280;74617;47.082;15.524;2024-02-21T10:04:27;97348.13;;;19.68;43.96
83551;BME280;74617;47.082;15.524;2024-02-21T10:06:55;97345.38;;;19.68;43.91
83551;BME280;74617;47.082;15.524;2024-02-21T10:09:22;97342.66;;;19.68;43.91
83551;BME280;74617;47.082;15.524;2024-02-21T10:11:49;97336.91;;;19.70;43.77
83551;BME280;74617;47.082;15.524;2024-02-21T10:14:16;97344.75;;;19.72;43.63
83551;BME280;74617;47.082;15.524;2024-02-21T10:16:41;97340.59;;;19.74;44.07
83551;BME280;74617;47.082;15.524;2024-02-21T10:19:17;97341.88;;;19.77;43.72
83551;BME280;74617;47.082;15.524;2024-02-21T10:21:42;97341.88;;;19.77;43.56
83551;BME280;74617;47.082;15.524;2024-02-21T10:24:08;97334.19;;;19.79;43.67
83551;BME280;74617;47.082;15.524;2024-02-21T10:26:35;97332.25;;;19.79;43.57
83551;BME280;74617;47.082;15.524;2024-02-21T10:29:02;97327.59;;;19.80;43.83
83551;BME280;74617;47.082;15.524;2024-02-21T10:31:28;97322.16;;;19.80;43.57
83551;BME280;74617;47.082;15.524;2024-02-21T10:33:54;97324.88;;;19.80;43.63
83551;BME280;74617;47.082;15.524;2024-02-21T10:36:20;97326.00;;;19.79;43.45
83551;BME280;74617;47.082;15.524;2024-02-21T10:38:46;97326.81;;;19.79;43.62
83551;BME280;74617;47.082;15.524;2024-02-21T10:41:14;97316.69;;;19.80;43.55
83551;BME280;74617;47.082;15.524;2024-02-21T10:43:40;97316.69;;;19.80;43.40
83551;BME280;74617;47.082;15.524;2024-02-21T10:46:07;97304.66;;;19.81;43.46
83551;BME280;74617;47.082;15.524;2024-02-21T10:48:43;97302.75;;;19.81;43.62
83551;BME280;74617;47.082;15.524;2024-02-21T10:51:20;97286.03;;;19.83;43.45
83551;BME280;74617;47.082;15.524;2024-02-21T10:56:51;97273.38;;;19.87;43.28
83551;BME280;74617;47.082;15.524;2024-02-21T10:59:18;97266.00;;;19.87;43.18
83551;BME280;74617;47.082;15.524;2024-02-21T11:01:45;97270.00;;;19.90;43.11
83551;BME280;74617;47.082;15.524;2024-02-21T11:04:11;97262.31;;;19.92;43.24
83551;BME280;74617;47.082;15.524;2024-02-21T11:06:38;97261.53;;;19.91;43.01
83551;BME280;74617;47.082;15.524;2024-02-21T11:09:11;97254.47;;;19.90;43.33
83551;BME280;74617;47.082;15.524;2024-02-21T11:11:43;97253.63;;;19.90;43.09
83551;BME280;74617;47.082;15.524;2024-02-21T11:14:10;97253.63;;;19.90;43.33
83551;BME280;74617;47.082;15.524;2024-02-21T11:16:38;97242.72;;;19.90;43.02
83551;BME280;74617;47.082;15.524;2024-02-21T11:19:19;97234.25;;;19.91;43.31
83551;BME280;74617;47.082;15.524;2024-02-21T11:21:45;97232.00;;;19.93;43.06
83551;BME280;74617;47.082;15.524;2024-02-21T11:24:10;97227.00;;;19.95;42.94
83551;BME280;74617;47.082;15.524;2024-02-21T11:26:37;97228.31;;;19.98;43.16
83551;BME280;74617;47.082;15.524;2024-02-21T11:29:03;97229.09;;;19.99;43.10
83551;BME280;74617;47.082;15.524;2024-02-21T11:31:44;97220.25;;;20.02;43.04
83551;BME280;74617;47.082;15.524;2024-02-21T11:34:13;97213.66;;;20.03;43.25
83551;BME280;74617;47.082;15.524;2024-02-21T11:36:49;97205.19;;;20.04;43.06
83551;BME280;74617;47.082;15.524;2024-02-21T11:39:23;97204.06;;;20.05;43.19
83551;BME280;74617;47.082;15.524;2024-02-21T11:42:05;97190.56;;;20.09;43.24
83551;BME280;74617;47.082;15.524;2024-02-21T11:44:33;97186.41;;;20.11;43.33
83551;BME280;74617;47.082;15.524;2024-02-21T11:46:59;97177.88;;;20.13;43.14
83551;BME280;74617;47.082;15.524;2024-02-21T11:49:25;97170.03;;;20.11;43.48
83551;BME280;74617;47.082;15.524;2024-02-21T11:51:59;97169.38;;;20.14;43.95
83551;BME280;74617;47.082;15.524;2024-02-21T11:54:25;97160.38;;;20.14;43.92
83551;BME280;74617;47.082;15.524;2024-02-21T11:56:51;97156.53;;;20.15;43.70
83551;BME280;74617;47.082;15.524;2024-02-21T11:59:16;97151.53;;;20.17;43.99
83551;BME280;74617;47.082;15.524;2024-02-21T12:01:42;97141.09;;;20.19;43.82
83551;BME280;74617;47.082;15.524;2024-02-21T12:04:07;97141.91;;;20.19;44.04
83551;BME280;74617;47.082;15.524;2024-02-21T12:06:33;97141.91;;;20.19;43.87
83551;BME280;74617;47.082;15.524;2024-02-21T12:08:58;97145.09;;;20.21;44.11
83551;BME280;74617;47.082;15.524;2024-02-21T12:11:24;97134.97;;;20.22;44.06
83551;BME280;74617;47.082;15.524;2024-02-21T12:14:03;97130.31;;;20.22;43.90
83551;BME280;74617;47.082;15.524;2024-02-21T12:16:30;97126.97;;;20.26;44.03
83551;BME280;74617;47.082;15.524;2024-02-21T12:19:00;97127.41;;;20.28;43.94
83551;BME280;74617;47.082;15.524;2024-02-21T12:21:26;97124.34;;;20.29;44.12
83551;BME280;74617;47.082;15.524;2024-02-21T12:23:54;97127.41;;;20.28;43.87
83551;BME280;74617;47.082;15.524;2024-02-21T12:26:20;97119.69;;;20.30;44.26
83551;BME280;74617;47.082;15.524;2024-02-21T12:28:45;97120.19;;;20.32;43.87
83551;BME280;74617;47.082;15.524;2024-02-21T12:31:11;97107.34;;;20.32;43.72
83551;BME280;74617;47.082;15.524;2024-02-21T12:33:37;97101.56;;;20.34;43.77
83551;BME280;74617;47.082;15.524;2024-02-21T12:36:02;97098.47;;;20.35;43.90
83551;BME280;74617;47.082;15.524;2024-02-21T12:38:29;97089.16;;;20.36;43.94
83551;BME280;74617;47.082;15.524;2024-02-21T12:40:54;97086.44;;;20.36;43.78
83551;BME280;74617;47.082;15.524;2024-02-21T12:43:20;97083.72;;;20.36;44.05
83551;BME280;74617;47.082;15.524;2024-02-21T12:45:47;97083.38;;;20.38;43.91
83551;BME280;74617;47.082;15.524;2024-02-21T12:48:13;97088.53;;;20.39;43.87